Time;durP1;ratioP1;P1;durP2;ratioP2;P2;SDS_P1;SDS_P2;PMS_P1;PMS_P2;Temp;Humidity;BMP_temperature;BMP_pressure;BME280_temperature;BME280_humidity;BME280_pressure;Samples;Min_cycle;Max_cycle;Signal;HPM_P1;HPM_P2
2022/08/29 00:00:43;;;;;;;6.18;2.40;;;16.80;99.90;;;;;;5068825;28;20048;-55
2022/08/29 00:03:10;;;;;;;3.88;1.95;;;16.80;99.90;;;;;;5069289;28;20052;-54
2022/08/29 00:05:37;;;;;;;4.93;2.35;;;16.80;99.90;;;;;;5051419;28;20045;-55
2022/08/29 00:08:04;;;;;;;5.30;2.53;;;16.80;99.90;;;;;;5069853;28;20083;-55
2022/08/29 00:10:32;;;;;;;4.43;2.47;;;16.80;99.90;;;;;;5069996;28;20044;-54
2022/08/29 00:12:58;;;;;;;6.22;2.00;;;16.70;99.90;;;;;;5069597;28;20486;-55
2022/08/29 00:15:24;;;;;;;4.35;2.47;;;16.70;99.90;;;;;;5069129;28;20441;-55
2022/08/29 00:17:53;;;;;;;4.97;2.30;;;16.90;99.90;;;;;;5063731;28;20052;-55
2022/08/29 00:20:22;;;;;;;5.43;2.17;;;16.70;99.90;;;;;;5049680;28;20052;-55
2022/08/29 00:22:48;;;;;;;8.27;2.60;;;16.70;99.90;;;;;;5052546;28;20604;-55
2022/08/29 00:25:14;;;;;;;6.70;2.97;;;16.70;99.90;;;;;;5069233;28;20048;-55
2022/08/29 00:27:40;;;;;;;5.10;2.17;;;16.70;99.90;;;;;;5068893;28;20048;-55
2022/08/29 00:30:07;;;;;;;3.88;2.30;;;16.70;99.90;;;;;;5069038;28;20537;-55
2022/08/29 00:32:35;;;;;;;7.88;1.95;;;16.70;99.90;;;;;;5068329;28;20498;-56
2022/08/29 00:35:16;;;;;;;4.00;2.20;;;16.70;99.90;;;;;;5069247;28;20376;-56
2022/08/29 00:37:42;;;;;;;5.63;2.30;;;16.70;99.90;;;;;;5052536;28;20044;-56
2022/08/29 00:40:12;;;;;;;4.60;2.17;;;16.70;99.90;;;;;;5031259;28;20049;-58
2022/08/29 00:42:38;;;;;;;4.20;2.88;;;16.70;99.90;;;;;;5030639;28;20422;-56
2022/08/29 00:45:07;;;;;;;5.25;2.20;;;16.70;99.90;;;;;;5057624;28;20529;-57
2022/08/29 00:47:36;;;;;;;7.45;2.20;;;16.70;99.90;;;;;;5068225;28;20933;-59
2022/08/29 00:50:06;;;;;;;6.25;2.63;;;16.70;99.90;;;;;;5068759;28;20485;-55
2022/08/29 00:52:38;;;;;;;7.65;2.90;;;16.70;99.90;;;;;;5068676;28;20521;-55
2022/08/29 00:55:10;;;;;;;7.30;2.13;;;16.70;99.90;;;;;;5068724;28;20044;-55
2022/08/29 00:57:41;;;;;;;4.50;2.22;;;16.70;99.90;;;;;;5068383;28;20128;-55
2022/08/29 01:00:08;;;;;;;6.38;1.83;;;16.70;99.90;;;;;;5068627;28;20071;-56
2022/08/29 01:02:33;;;;;;;4.93;2.13;;;16.70;99.90;;;;;;5068263;28;20040;-56
2022/08/29 01:04:59;;;;;;;5.68;2.50;;;16.60;99.90;;;;;;5069047;28;20122;-55
2022/08/29 01:07:26;;;;;;;5.20;1.92;;;16.70;99.90;;;;;;5068373;28;20112;-55
2022/08/29 01:09:52;;;;;;;2.47;1.85;;;16.70;99.90;;;;;;5068261;28;20052;-55
2022/08/29 01:12:20;;;;;;;5.75;1.63;;;16.70;99.90;;;;;;5068851;28;20207;-55
2022/08/29 01:15:01;;;;;;;5.47;2.15;;;16.70;99.90;;;;;;5068137;28;20088;-55
2022/08/29 01:17:35;;;;;;;12.15;2.50;;;16.70;99.90;;;;;;5066189;28;20052;-56
2022/08/29 01:20:31;;;;;;;8.05;2.22;;;16.60;99.90;;;;;;5048255;28;20048;-58
2022/08/29 01:23:33;;;;;;;4.63;2.08;;;16.80;99.90;;;;;;5053005;28;20060;-57
2022/08/29 01:26:01;;;;;;;4.50;1.42;;;16.60;99.90;;;;;;5016820;28;20564;-55
2022/08/29 01:28:31;;;;;;;6.00;2.72;;;16.60;99.90;;;;;;5067486;28;20479;-55
2022/08/29 01:31:12;;;;;;;8.75;2.00;;;16.60;99.90;;;;;;5067661;28;20454;-56
2022/08/29 01:33:58;;;;;;;5.78;1.80;;;16.60;99.90;;;;;;5068054;28;20044;-56
2022/08/29 01:36:46;;;;;;;4.82;2.20;;;16.60;99.90;;;;;;5046578;28;20091;-55
2022/08/29 01:39:12;;;;;;;6.70;1.83;;;16.60;99.90;;;;;;5047582;28;20179;-55
2022/08/29 01:41:40;;;;;;;4.18;1.55;;;16.60;99.90;;;;;;5029310;28;20049;-56
2022/08/29 01:44:16;;;;;;;6.57;1.50;;;16.60;99.90;;;;;;5056968;28;20052;-57
2022/08/29 01:46:42;;;;;;;4.88;1.52;;;16.60;99.90;;;;;;5067634;28;20044;-56
2022/08/29 01:49:09;;;;;;;3.72;1.25;;;16.60;99.90;;;;;;5067545;28;20050;-57
2022/08/29 01:51:36;;;;;;;6.22;2.00;;;16.60;99.90;;;;;;5067160;28;20189;-55
2022/08/29 01:54:06;;;;;;;2.78;1.05;;;16.60;99.90;;;;;;5067758;28;20158;-56
2022/08/29 01:56:34;;;;;;;4.97;1.55;;;16.60;99.90;;;;;;5067139;28;20058;-55
2022/08/29 01:59:03;;;;;;;4.78;1.95;;;16.70;99.90;;;;;;5067081;28;20036;-55
2022/08/29 02:01:33;;;;;;;5.60;1.90;;;16.70;99.90;;;;;;5067447;28;20052;-54
2022/08/29 02:03:59;;;;;;;3.58;1.90;;;16.70;99.90;;;;;;5067264;28;20062;-54
2022/08/29 02:06:26;;;;;;;3.50;1.50;;;16.70;99.90;;;;;;5067289;28;20040;-55
2022/08/29 02:08:53;;;;;;;6.32;1.40;;;16.70;99.90;;;;;;5066544;28;20041;-55
2022/08/29 02:11:18;;;;;;;8.63;2.15;;;16.70;99.90;;;;;;5067484;28;20044;-55
2022/08/29 02:13:50;;;;;;;3.35;1.42;;;16.70;99.90;;;;;;5067157;28;20079;-54
2022/08/29 02:16:16;;;;;;;8.20;1.80;;;16.70;99.90;;;;;;5067244;28;20040;-54
2022/08/29 02:18:42;;;;;;;9.13;2.42;;;16.70;99.90;;;;;;5054409;28;20048;-55
2022/08/29 02:21:12;;;;;;;5.50;1.42;;;16.70;99.90;;;;;;5047081;28;20049;-55
2022/08/29 02:23:39;;;;;;;6.72;1.33;;;16.70;99.90;;;;;;5058164;28;20413;-55
2022/08/29 02:26:05;;;;;;;5.93;1.70;;;16.70;99.90;;;;;;5065365;28;20055;-55
2022/08/29 02:28:34;;;;;;;7.22;1.50;;;16.70;99.90;;;;;;5053126;28;20541;-55
2022/08/29 02:31:01;;;;;;;4.88;2.38;;;16.70;99.90;;;;;;5067527;28;20119;-55
2022/08/29 02:33:28;;;;;;;5.20;1.83;;;16.70;99.90;;;;;;5067124;28;20486;-56
2022/08/29 02:35:54;;;;;;;6.47;1.67;;;16.70;99.90;;;;;;5065254;28;20525;-55
2022/08/29 02:38:20;;;;;;;9.98;1.90;;;16.70;99.90;;;;;;5045826;28;20053;-55
2022/08/29 02:40:47;;;;;;;5.75;1.52;;;16.70;99.90;;;;;;5045666;28;20521;-56
2022/08/29 02:43:15;;;;;;;6.25;1.75;;;16.70;99.90;;;;;;5052323;28;20418;-55
2022/08/29 02:45:41;;;;;;;3.22;1.38;;;16.70;99.90;;;;;;5067089;28;20044;-59
2022/08/29 02:48:08;;;;;;;4.63;1.63;;;16.70;99.90;;;;;;5067361;28;20069;-59
2022/08/29 02:50:34;;;;;;;6.45;1.58;;;16.80;99.90;;;;;;5066696;28;20119;-60
2022/08/29 02:53:00;;;;;;;3.97;1.83;;;16.70;99.90;;;;;;5067046;28;20482;-55
2022/08/29 02:55:26;;;;;;;4.32;1.58;;;16.70;99.90;;;;;;5066974;28;20041;-55
2022/08/29 02:57:52;;;;;;;10.38;2.25;;;16.70;99.90;;;;;;5066673;28;20056;-55
2022/08/29 03:00:22;;;;;;;5.60;2.25;;;16.80;99.90;;;;;;5066572;28;20044;-55
2022/08/29 03:02:48;;;;;;;3.00;1.60;;;16.70;99.90;;;;;;5066767;28;20485;-55
2022/08/29 03:05:19;;;;;;;6.82;2.55;;;16.70;99.90;;;;;;5067032;28;20048;-55
2022/08/29 03:07:46;;;;;;;10.38;3.05;;;16.70;99.90;;;;;;5048351;28;20394;-55
2022/08/29 03:10:12;;;;;;;5.13;1.70;;;16.70;99.90;;;;;;5066805;28;20166;-55
2022/08/29 03:12:38;;;;;;;6.35;1.52;;;16.70;99.90;;;;;;5066610;28;20128;-55
2022/08/29 03:15:06;;;;;;;6.65;1.75;;;16.70;99.90;;;;;;5066294;28;20048;-55
2022/08/29 03:17:32;;;;;;;4.47;1.55;;;16.70;99.90;;;;;;5066041;28;20529;-56
2022/08/29 03:19:58;;;;;;;3.70;1.35;;;16.70;99.90;;;;;;5066691;28;20028;-59
2022/08/29 03:22:25;;;;;;;6.13;2.05;;;16.70;99.90;;;;;;5068908;28;20529;-55
2022/08/29 03:24:51;;;;;;;3.88;1.73;;;16.70;99.90;;;;;;5070121;28;20056;-55
2022/08/29 03:27:17;;;;;;;10.77;1.65;;;16.70;99.90;;;;;;5069996;28;20047;-54
2022/08/29 03:29:43;;;;;;;4.60;1.65;;;16.70;99.90;;;;;;5070063;28;20045;-55
2022/08/29 03:32:09;;;;;;;7.25;1.77;;;16.70;99.90;;;;;;5070772;28;20098;-54
2022/08/29 03:34:36;;;;;;;4.40;1.60;;;16.70;99.90;;;;;;5070124;28;20056;-55
2022/08/29 03:37:01;;;;;;;4.75;1.27;;;16.70;99.90;;;;;;5059475;28;20037;-55
2022/08/29 03:39:28;;;;;;;6.53;2.33;;;16.70;99.90;;;;;;5048720;28;20564;-55
2022/08/29 03:41:54;;;;;;;3.45;1.67;;;16.70;99.90;;;;;;5050259;28;20052;-55
2022/08/29 03:44:20;;;;;;;11.45;1.60;;;16.70;99.90;;;;;;5068475;28;20044;-55
2022/08/29 03:46:46;;;;;;;7.68;1.83;;;16.60;99.90;;;;;;5070287;28;20052;-55
2022/08/29 03:49:12;;;;;;;4.15;2.10;;;16.70;99.90;;;;;;5069455;28;20055;-55
2022/08/29 03:51:38;;;;;;;4.28;1.67;;;16.70;99.90;;;;;;5069957;28;20041;-55
2022/08/29 03:54:05;;;;;;;6.32;2.70;;;16.70;99.90;;;;;;5070260;28;20114;-55
2022/08/29 03:56:31;;;;;;;2.95;1.73;;;16.70;99.90;;;;;;5069698;28;20482;-56
2022/08/29 03:58:57;;;;;;;3.53;1.50;;;16.70;99.90;;;;;;5069246;28;20056;-56
2022/08/29 04:01:25;;;;;;;6.68;1.95;;;16.70;99.90;;;;;;5068345;28;20413;-55
2022/08/29 04:03:52;;;;;;;6.50;1.58;;;16.70;99.90;;;;;;5068841;28;20738;-55
2022/08/29 04:06:18;;;;;;;11.90;2.28;;;16.70;99.90;;;;;;5068912;28;20040;-55
2022/08/29 04:08:46;;;;;;;3.67;1.70;;;17.00;99.90;;;;;;5069212;28;20143;-56
2022/08/29 04:11:13;;;;;;;5.35;1.80;;;16.70;99.90;;;;;;5069142;28;20055;-55
2022/08/29 04:13:39;;;;;;;8.00;2.35;;;16.80;99.90;;;;;;5051633;28;20056;-56
2022/08/29 04:16:14;;;;;;;10.00;2.25;;;16.70;99.90;;;;;;5069679;28;20557;-55
2022/08/29 04:18:40;;;;;;;6.47;2.00;;;16.80;99.90;;;;;;5068772;28;20044;-55
2022/08/29 04:21:07;;;;;;;7.60;1.67;;;16.80;99.90;;;;;;5069290;28;20074;-55
2022/08/29 04:23:34;;;;;;;3.95;1.77;;;16.80;99.90;;;;;;5069549;28;20265;-55
2022/08/29 04:26:00;;;;;;;10.68;1.83;;;16.70;99.90;;;;;;5069030;28;20040;-55
2022/08/29 04:28:26;;;;;;;2.85;1.45;;;16.70;99.90;;;;;;5067938;28;20059;-55
2022/08/29 04:30:53;;;;;;;4.40;1.55;;;16.70;99.90;;;;;;5066890;28;20345;-56
2022/08/29 04:33:20;;;;;;;7.30;1.92;;;16.70;99.90;;;;;;5066862;28;20064;-55
2022/08/29 04:35:46;;;;;;;3.63;1.83;;;16.70;99.90;;;;;;5066294;28;20399;-55
2022/08/29 04:38:11;;;;;;;6.32;2.45;;;16.70;99.90;;;;;;5045668;28;20045;-55
2022/08/29 04:40:39;;;;;;;9.50;3.08;;;16.70;99.90;;;;;;5068791;28;20044;-55
2022/08/29 04:43:05;;;;;;;7.97;2.58;;;16.70;99.90;;;;;;5068152;28;20053;-54
2022/08/29 04:45:32;;;;;;;6.32;1.83;;;16.60;99.90;;;;;;5068850;28;20040;-55
2022/08/29 04:47:58;;;;;;;6.82;2.20;;;16.60;99.90;;;;;;5051222;28;20056;-55
2022/08/29 04:50:24;;;;;;;9.27;1.80;;;16.60;99.90;;;;;;5068692;28;20040;-55
2022/08/29 04:52:51;;;;;;;6.60;1.58;;;16.60;99.90;;;;;;5068152;28;20117;-55
2022/08/29 04:55:19;;;;;;;6.88;2.05;;;16.50;99.90;;;;;;5050512;28;20466;-55
2022/08/29 04:57:44;;;;;;;7.45;2.28;;;16.50;99.90;;;;;;5069065;28;20044;-55
2022/08/29 05:00:15;;;;;;;6.35;2.10;;;16.60;99.90;;;;;;5069012;28;20059;-55
2022/08/29 05:02:42;;;;;;;6.47;1.60;;;16.60;99.90;;;;;;5067780;28;20075;-55
2022/08/29 05:05:09;;;;;;;6.30;1.50;;;16.50;99.90;;;;;;5068385;28;20049;-55
2022/08/29 05:07:35;;;;;;;9.43;2.22;;;16.60;99.90;;;;;;5067580;28;20044;-55
2022/08/29 05:10:06;;;;;;;7.95;2.47;;;16.70;99.90;;;;;;5068121;28;20040;-56
2022/08/29 05:12:34;;;;;;;8.63;1.77;;;16.60;99.90;;;;;;5067914;28;20074;-57
2022/08/29 05:15:00;;;;;;;6.40;1.92;;;16.70;99.90;;;;;;5068225;28;20410;-57
2022/08/29 05:17:27;;;;;;;3.25;1.50;;;16.70;99.90;;;;;;5066268;28;20056;-55
2022/08/29 05:19:53;;;;;;;4.45;1.95;;;16.70;99.90;;;;;;5048250;28;20087;-55
2022/08/29 05:22:20;;;;;;;5.38;2.17;;;16.70;99.90;;;;;;5048293;28;20076;-55
2022/08/29 05:24:46;;;;;;;5.65;1.98;;;16.80;99.90;;;;;;5067558;28;20052;-55
2022/08/29 05:27:14;;;;;;;4.38;1.98;;;16.80;99.90;;;;;;5067757;28;20125;-54
2022/08/29 05:29:43;;;;;;;5.68;2.00;;;16.80;99.90;;;;;;5067832;28;20056;-56
2022/08/29 05:32:10;;;;;;;6.95;2.42;;;16.80;99.90;;;;;;5067939;28;20052;-56
2022/08/29 05:34:37;;;;;;;4.88;1.77;;;16.80;99.90;;;;;;5067876;28;20044;-55
2022/08/29 05:37:06;;;;;;;6.57;2.08;;;16.80;99.90;;;;;;5056858;28;20049;-57
2022/08/29 05:39:33;;;;;;;7.28;1.45;;;16.90;99.90;;;;;;5047889;28;20045;-55
2022/08/29 05:41:59;;;;;;;6.93;2.20;;;16.90;99.90;;;;;;5047910;28;20099;-59
2022/08/29 05:44:27;;;;;;;4.80;2.00;;;16.90;99.90;;;;;;5046930;28;20128;-57
2022/08/29 05:46:53;;;;;;;5.15;1.98;;;17.00;99.90;;;;;;5047179;28;20048;-56
2022/08/29 05:49:20;;;;;;;7.63;1.85;;;17.10;99.90;;;;;;5048088;28;20045;-55
2022/08/29 05:51:46;;;;;;;9.40;3.25;;;17.20;99.90;;;;;;5047489;28;20041;-55
2022/08/29 05:54:12;;;;;;;10.80;2.40;;;17.20;99.90;;;;;;5066483;28;20045;-55
2022/08/29 05:56:38;;;;;;;7.30;1.98;;;17.20;99.90;;;;;;5067630;28;20047;-55
2022/08/29 05:59:03;;;;;;;6.65;1.95;;;17.30;99.90;;;;;;5067162;28;20052;-55
2022/08/29 06:01:32;;;;;;;5.95;2.05;;;17.30;99.90;;;;;;5067845;28;20044;-55
2022/08/29 06:03:59;;;;;;;6.20;2.08;;;17.40;99.90;;;;;;5067546;28;20102;-55
2022/08/29 06:06:27;;;;;;;6.35;1.90;;;17.50;99.90;;;;;;5067443;28;20048;-55
2022/08/29 06:08:54;;;;;;;6.65;1.90;;;17.50;99.90;;;;;;5066882;28;20098;-55
2022/08/29 06:11:23;;;;;;;5.70;2.20;;;17.60;99.90;;;;;;5067487;28;20044;-55
2022/08/29 06:13:49;;;;;;;4.13;1.73;;;17.60;99.90;;;;;;5067033;28;20066;-55
2022/08/29 06:16:17;;;;;;;6.80;1.90;;;17.70;99.90;;;;;;5048961;28;20462;-55
2022/08/29 06:18:44;;;;;;;5.22;2.05;;;17.80;99.90;;;;;;5054254;28;20080;-56
2022/08/29 06:21:11;;;;;;;15.43;3.30;;;17.70;99.90;;;;;;5051562;28;20044;-55
2022/08/29 06:23:38;;;;;;;8.10;2.55;;;17.80;99.90;;;;;;5066839;28;20063;-55
2022/08/29 06:26:05;;;;;;;6.47;2.08;;;18.00;99.90;;;;;;5063439;28;20045;-56
2022/08/29 06:28:32;;;;;;;6.82;2.17;;;18.00;99.90;;;;;;5067204;28;20040;-55
2022/08/29 06:31:06;;;;;;;6.57;2.00;;;18.10;99.90;;;;;;5067118;28;20510;-55
2022/08/29 06:33:32;;;;;;;10.15;1.98;;;18.20;99.90;;;;;;5050411;28;20098;-55
2022/08/29 06:35:58;;;;;;;5.38;2.10;;;18.20;99.90;;;;;;5047779;28;20183;-57
2022/08/29 06:38:23;;;;;;;3.80;1.90;;;18.30;99.90;;;;;;5061475;28;20147;-55
2022/08/29 06:40:49;;;;;;;8.55;2.25;;;18.30;99.90;;;;;;5067258;28;20179;-56
2022/08/29 06:43:15;;;;;;;5.93;2.40;;;18.40;99.90;;;;;;5066782;28;20055;-55
2022/08/29 06:45:43;;;;;;;7.55;2.20;;;18.60;99.90;;;;;;5067040;28;20041;-55
2022/08/29 06:48:09;;;;;;;7.68;2.72;;;19.00;99.90;;;;;;5067059;28;20494;-55
2022/08/29 06:50:36;;;;;;;7.13;1.90;;;19.10;99.90;;;;;;5067040;28;20048;-55
2022/08/29 06:53:03;;;;;;;6.88;1.90;;;19.30;99.90;;;;;;5066677;28;20045;-55
2022/08/29 06:55:28;;;;;;;10.48;2.85;;;19.40;99.90;;;;;;5068805;28;20074;-56
2022/08/29 06:57:54;;;;;;;7.70;2.20;;;19.40;99.90;;;;;;5070853;28;20486;-55
2022/08/29 07:00:20;;;;;;;9.85;2.20;;;19.40;99.90;;;;;;5067603;28;20044;-56
2022/08/29 07:02:50;;;;;;;9.05;2.80;;;19.40;99.90;;;;;;5061910;28;20045;-56
2022/08/29 07:05:15;;;;;;;10.18;3.20;;;19.20;99.90;;;;;;5066468;28;20041;-56
2022/08/29 07:07:41;;;;;;;4.88;2.20;;;19.10;99.90;;;;;;5069667;28;20044;-56
2022/08/29 07:10:08;;;;;;;12.05;3.88;;;19.10;99.90;;;;;;5070235;28;20056;-56
2022/08/29 07:12:34;;;;;;;11.00;3.60;;;19.10;99.90;;;;;;5069769;28;20130;-57
2022/08/29 07:15:00;;;;;;;11.73;3.70;;;19.10;99.90;;;;;;5069906;28;20072;-55
2022/08/29 07:17:28;;;;;;;11.23;2.88;;;19.10;99.90;;;;;;5067812;28;20056;-55
2022/08/29 07:19:53;;;;;;;7.88;4.15;;;19.20;99.90;;;;;;5049805;28;20056;-56
2022/08/29 07:22:19;;;;;;;6.43;2.60;;;19.10;99.90;;;;;;5050161;28;20122;-55
2022/08/29 07:24:45;;;;;;;11.15;2.55;;;19.10;99.90;;;;;;5052765;28;20051;-55
2022/08/29 07:27:12;;;;;;;5.22;2.72;;;19.30;99.90;;;;;;5070259;28;21049;-55
2022/08/29 07:29:39;;;;;;;7.30;2.50;;;19.40;99.90;;;;;;5070311;28;20045;-56
2022/08/29 07:32:05;;;;;;;8.07;2.45;;;19.40;99.90;;;;;;5070571;28;20044;-56
2022/08/29 07:34:31;;;;;;;14.13;3.47;;;19.70;99.90;;;;;;5051975;28;20052;-56
2022/08/29 07:36:56;;;;;;;9.10;3.15;;;19.70;99.90;;;;;;5064970;28;20047;-58
2022/08/29 07:39:22;;;;;;;7.78;2.60;;;19.60;99.90;;;;;;5048593;28;20049;-58
2022/08/29 07:41:49;;;;;;;7.90;2.50;;;19.90;99.90;;;;;;5050249;28;20082;-55
2022/08/29 07:44:15;;;;;;;10.15;2.53;;;20.00;99.90;;;;;;5056048;28;20833;-55
2022/08/29 07:46:42;;;;;;;7.38;2.83;;;19.80;99.90;;;;;;5062280;28;20087;-56
2022/08/29 07:49:08;;;;;;;5.75;2.80;;;19.90;99.90;;;;;;5066565;28;20052;-55
2022/08/29 07:51:35;;;;;;;7.88;3.08;;;19.90;99.90;;;;;;5052397;28;20127;-55
2022/08/29 07:54:00;;;;;;;9.45;3.17;;;20.10;99.90;;;;;;5068331;28;20059;-55
2022/08/29 07:56:33;;;;;;;12.93;2.92;;;20.00;99.90;;;;;;5065475;28;20036;-55
2022/08/29 07:58:59;;;;;;;8.50;3.50;;;20.20;99.90;;;;;;5059943;28;20136;-55
2022/08/29 08:01:26;;;;;;;12.35;3.53;;;20.60;99.90;;;;;;5061129;28;20068;-55
2022/08/29 08:03:52;;;;;;;8.50;2.35;;;20.70;99.90;;;;;;5049617;28;20044;-56
2022/08/29 08:06:20;;;;;;;4.80;2.08;;;21.00;99.90;;;;;;5049564;28;20514;-55
2022/08/29 08:08:46;;;;;;;7.57;3.05;;;21.50;99.90;;;;;;5055442;28;20481;-58
2022/08/29 08:11:13;;;;;;;6.50;2.38;;;21.70;99.90;;;;;;5048493;28;20147;-55
2022/08/29 08:13:38;;;;;;;8.63;3.35;;;21.50;99.90;;;;;;5055223;28;20044;-56
2022/08/29 08:16:07;;;;;;;5.28;3.50;;;21.60;99.90;;;;;;5050688;28;20132;-55
2022/08/29 08:18:35;;;;;;;7.72;2.45;;;21.30;99.90;;;;;;5058204;28;20076;-55
2022/08/29 08:21:01;;;;;;;6.70;2.40;;;21.30;99.90;;;;;;5040582;28;20041;-56
2022/08/29 08:23:26;;;;;;;9.95;3.35;;;21.50;99.90;;;;;;5030495;28;20642;-56
2022/08/29 08:25:52;;;;;;;11.80;2.85;;;21.40;99.90;;;;;;5047952;28;20124;-56
2022/08/29 08:28:18;;;;;;;5.70;2.28;;;21.20;99.90;;;;;;5047468;28;20064;-55
2022/08/29 08:30:44;;;;;;;7.13;3.05;;;21.60;99.90;;;;;;5048144;28;20049;-55
2022/08/29 08:33:10;;;;;;;8.90;3.63;;;21.50;99.90;;;;;;5048040;28;20104;-55
2022/08/29 08:35:37;;;;;;;9.38;2.72;;;21.60;99.90;;;;;;5055260;28;20098;-55
2022/08/29 08:38:04;;;;;;;11.85;2.85;;;21.70;99.90;;;;;;5062616;28;20045;-55
2022/08/29 08:40:31;;;;;;;11.10;3.88;;;21.90;99.90;;;;;;5066516;28;20072;-55
2022/08/29 08:43:00;;;;;;;8.98;3.47;;;21.90;99.90;;;;;;5065990;28;20044;-55
2022/08/29 08:45:36;;;;;;;6.88;2.88;;;21.50;99.90;;;;;;5065030;28;20119;-55
2022/08/29 08:48:16;;;;;;;10.80;3.15;;;21.30;99.90;;;;;;5065086;28;20079;-56
2022/08/29 08:50:46;;;;;;;8.52;3.65;;;21.50;99.90;;;;;;5065433;28;20518;-55
2022/08/29 08:53:38;;;;;;;9.20;4.03;;;21.30;99.90;;;;;;5065650;28;20143;-55
2022/08/29 08:56:29;;;;;;;9.30;2.90;;;21.60;99.90;;;;;;5047960;28;20090;-56
2022/08/29 08:59:09;;;;;;;6.57;2.92;;;21.80;99.90;;;;;;5055199;28;20521;-55
2022/08/29 09:01:53;;;;;;;8.05;3.20;;;22.20;99.90;;;;;;5061862;28;20052;-56
2022/08/29 09:04:28;;;;;;;7.75;2.58;;;21.80;99.90;;;;;;5048757;28;20103;-55
2022/08/29 09:07:10;;;;;;;9.30;2.88;;;21.50;99.90;;;;;;5046408;28;20054;-56
2022/08/29 09:09:50;;;;;;;8.55;3.40;;;21.40;99.90;;;;;;5065367;28;20570;-59
2022/08/29 09:12:27;;;;;;;3.33;2.42;;;21.60;99.90;;;;;;5065555;28;20131;-62
2022/08/29 09:15:03;;;;;;;8.50;2.97;;;21.50;99.90;;;;;;5064249;28;20048;-59
2022/08/29 09:17:47;;;;;;;12.80;4.35;;;21.60;99.90;;;;;;5063653;28;20521;-58
2022/08/29 09:20:19;;;;;;;9.60;3.53;;;21.30;99.90;;;;;;5051515;28;20052;-56
2022/08/29 09:22:57;;;;;;;5.55;2.92;;;21.30;99.90;;;;;;5062988;28;20053;-55
2022/08/29 09:25:23;;;;;;;8.13;3.33;;;21.50;99.90;;;;;;5051076;28;20045;-55
2022/08/29 09:27:49;;;;;;;7.28;2.88;;;21.20;99.90;;;;;;5047642;28;20386;-56
2022/08/29 09:30:23;;;;;;;12.65;3.78;;;21.40;99.90;;;;;;5046859;28;20053;-55
2022/08/29 09:33:08;;;;;;;6.55;2.58;;;21.10;99.90;;;;;;5048028;28;20040;-57
2022/08/29 09:35:38;;;;;;;8.80;2.97;;;21.00;99.90;;;;;;5053582;28;20048;-56
2022/08/29 09:38:08;;;;;;;7.13;2.78;;;21.10;99.90;;;;;;5056879;28;20041;-57
2022/08/29 09:40:58;;;;;;;7.65;2.78;;;21.30;99.90;;;;;;5054731;28;20256;-58
2022/08/29 09:43:48;;;;;;;6.45;2.80;;;21.60;99.90;;;;;;5056107;28;20036;-58
2022/08/29 09:46:17;;;;;;;6.30;2.65;;;21.80;99.90;;;;;;5052361;28;20052;-58
2022/08/29 09:48:44;;;;;;;6.13;3.22;;;22.10;99.90;;;;;;5056674;28;20177;-55
2022/08/29 09:51:16;;;;;;;8.93;2.50;;;22.20;99.90;;;;;;5055885;28;20094;-58
2022/08/29 09:53:42;;;;;;;7.97;3.50;;;22.40;99.90;;;;;;5053687;28;20526;-59
2022/08/29 09:56:15;;;;;;;13.52;3.25;;;22.80;99.90;;;;;;5047073;28;20048;-57
2022/08/29 09:58:41;;;;;;;5.35;2.25;;;22.90;99.90;;;;;;5046625;28;20045;-55
2022/08/29 10:01:17;;;;;;;7.18;2.83;;;22.10;99.90;;;;;;5055999;28;20079;-55
2022/08/29 10:03:59;;;;;;;8.88;2.72;;;22.00;99.90;;;;;;5037610;28;20102;-55
2022/08/29 10:06:31;;;;;;;7.00;2.15;;;22.00;99.90;;;;;;5051483;28;20115;-55
2022/08/29 10:09:05;;;;;;;5.03;2.58;;;22.10;99.90;;;;;;5046573;28;20053;-56
2022/08/29 10:11:34;;;;;;;;;;;22.20;99.90;;;;;;5047394;28;20045;-56
2022/08/29 10:14:15;;;;;;;4.85;2.17;;;22.80;99.90;;;;;;5066028;28;20443;-56
2022/08/29 10:18:19;;;;;;;8.88;2.50;;;23.00;99.90;;;;;;5046886;28;20398;-55
2022/08/29 10:19:46;;;;;;;8.15;2.55;;;23.00;99.90;;;;;;5047573;28;20053;-56
2022/08/29 10:22:42;;;;;;;10.85;2.60;;;23.20;99.90;;;;;;5046802;28;20059;-60
2022/08/29 10:25:19;;;;;;;10.38;3.15;;;23.50;99.90;;;;;;5064757;28;20464;-60
2022/08/29 10:28:19;;;;;;;9.77;3.03;;;24.00;99.90;;;;;;5053253;28;20156;-60
2022/08/29 10:30:45;;;;;;;13.95;2.47;;;24.20;99.90;;;;;;4995850;28;20057;-58
2022/08/29 10:33:19;;;;;;;7.10;2.75;;;23.90;99.90;;;;;;5066799;28;20121;-60
2022/08/29 10:35:59;;;;;;;9.95;3.08;;;23.80;99.90;;;;;;5050442;28;20135;-58
2022/08/29 10:38:44;;;;;;;8.82;2.92;;;24.00;99.90;;;;;;5045744;28;20430;-57
2022/08/29 10:41:31;;;;;;;5.18;2.15;;;23.40;99.90;;;;;;5046101;28;20099;-59
2022/08/29 10:44:09;;;;;;;10.57;2.22;;;23.90;99.90;;;;;;5046068;28;20049;-55
2022/08/29 10:47:00;;;;;;;4.38;2.15;;;23.80;99.90;;;;;;5045042;28;20132;-58
2022/08/29 10:49:38;;;;;;;7.90;3.25;;;23.20;99.90;;;;;;5034851;28;20094;-56
2022/08/29 10:52:33;;;;;;;3.97;2.22;;;23.70;99.90;;;;;;5046746;28;20057;-61
2022/08/29 10:55:11;;;;;;;4.53;2.17;;;24.20;99.90;;;;;;5048566;28;20041;-60
2022/08/29 10:57:45;;;;;;;9.23;2.38;;;24.30;99.90;;;;;;5063086;28;20379;-56
2022/08/29 11:00:18;;;;;;;7.55;3.00;;;24.10;99.90;;;;;;5064912;28;20040;-56
2022/08/29 11:03:13;;;;;;;4.47;2.20;;;24.20;99.90;;;;;;5065064;28;20043;-60
2022/08/29 11:05:46;;;;;;;7.03;2.70;;;24.70;99.90;;;;;;5063423;28;20053;-56
2022/08/29 11:08:18;;;;;;;7.00;2.30;;;25.00;99.90;;;;;;5046021;28;20056;-60
2022/08/29 11:10:48;;;;;;;4.22;2.25;;;24.80;99.90;;;;;;5045414;28;20831;-59
2022/08/29 11:13:25;;;;;;;4.55;2.00;;;24.90;99.90;;;;;;5045883;28;20044;-60
2022/08/29 11:16:14;;;;;;;6.32;2.28;;;25.30;99.90;;;;;;5045913;28;20474;-58
2022/08/29 11:19:12;;;;;;;4.20;2.50;;;25.80;99.90;;;;;;5057666;28;20051;-56
2022/08/29 11:21:45;;;;;;;9.73;2.85;;;24.90;99.90;;;;;;5036826;28;20045;-56
2022/08/29 11:24:14;;;;;;;4.32;1.90;;;24.20;99.90;;;;;;5051374;28;20577;-57
2022/08/29 11:26:40;;;;;;;9.45;2.85;;;24.60;99.90;;;;;;5046128;28;20189;-55
2022/08/29 11:29:44;;;;;;;8.48;2.47;;;24.80;99.90;;;;;;5046120;28;20151;-56
2022/08/29 11:32:37;;;;;;;7.35;2.13;;;24.60;99.90;;;;;;4983500;28;20424;-56
2022/08/29 11:35:21;;;;;;;4.45;2.22;;;25.00;99.90;;;;;;5064339;28;20062;-59
2022/08/29 11:38:02;;;;;;;8.45;2.10;;;25.60;99.90;;;;;;5062024;28;20040;-58
2022/08/29 11:40:31;;;;;;;6.20;2.25;;;26.20;99.90;;;;;;5064823;28;20119;-56
2022/08/29 11:43:01;;;;;;;4.88;2.03;;;27.70;99.90;;;;;;5041772;28;20060;-57
2022/08/29 11:45:30;;;;;;;10.75;1.95;;;27.70;99.90;;;;;;5031628;28;20053;-57
2022/08/29 11:48:15;;;;;;;4.57;1.85;;;27.70;99.90;;;;;;5049427;28;20040;-56
2022/08/29 11:50:41;;;;;;;3.47;1.63;;;27.40;99.90;;;;;;5049713;28;20056;-57
2022/08/29 11:53:19;;;;;;;3.10;1.98;;;30.20;99.90;;;;;;5049231;28;20049;-56
2022/08/29 11:56:14;;;;;;;3.72;1.90;;;32.50;98.30;;;;;;5049663;28;20132;-56
2022/08/29 11:58:45;;;;;;;2.55;1.70;;;33.80;95.60;;;;;;5051147;28;20063;-56
2022/08/29 12:01:33;;;;;;;8.02;2.58;;;33.00;95.60;;;;;;5067773;28;20855;-55
2022/08/29 12:04:10;;;;;;;5.63;1.83;;;31.00;95.00;;;;;;5054405;28;20155;-57
2022/08/29 12:06:41;;;;;;;4.82;1.77;;;30.30;97.20;;;;;;5051737;28;20053;-58
2022/08/29 12:09:23;;;;;;;5.15;1.90;;;29.00;97.00;;;;;;5050455;28;20122;-57
2022/08/29 12:12:01;;;;;;;4.80;2.10;;;28.70;97.50;;;;;;5032554;28;20047;-60
2022/08/29 12:14:46;;;;;;;4.00;2.15;;;28.40;97.40;;;;;;5063935;28;20040;-61
2022/08/29 12:17:24;;;;;;;4.00;2.13;;;27.80;98.20;;;;;;5067049;28;20110;-60
2022/08/29 12:20:12;;;;;;;5.80;2.25;;;27.90;98.60;;;;;;5055366;28;20076;-60
2022/08/29 12:22:50;;;;;;;5.88;1.75;;;27.80;98.50;;;;;;5051678;28;20053;-61
2022/08/29 12:25:38;;;;;;;7.70;2.22;;;27.20;99.30;;;;;;5056421;28;20044;-62
2022/08/29 12:28:34;;;;;;;5.07;2.05;;;26.20;99.50;;;;;;5068714;28;20625;-60
2022/08/29 12:31:11;;;;;;;7.75;2.40;;;26.30;99.90;;;;;;5067470;28;20178;-58
2022/08/29 12:34:03;;;;;;;3.80;1.88;;;25.40;99.90;;;;;;5068689;28;20106;-60
2022/08/29 12:36:46;;;;;;;6.05;1.80;;;25.30;99.90;;;;;;5061660;28;20037;-57
2022/08/29 12:39:37;;;;;;;6.37;2.70;;;25.00;99.90;;;;;;5047954;28;20052;-59
2022/08/29 12:42:11;;;;;;;7.05;2.20;;;24.90;99.90;;;;;;5047760;28;20302;-55
2022/08/29 12:44:47;;;;;;;3.45;1.75;;;24.60;99.90;;;;;;5047909;28;20658;-55
2022/08/29 12:47:40;;;;;;;7.88;3.42;;;24.70;99.90;;;;;;5060807;28;20053;-55
2022/08/29 12:50:19;;;;;;;3.88;2.38;;;24.60;99.90;;;;;;5037156;28;20056;-55
2022/08/29 12:52:58;;;;;;;4.38;2.00;;;24.80;99.90;;;;;;5047866;28;20051;-56
2022/08/29 12:55:30;;;;;;;7.75;2.35;;;24.60;99.90;;;;;;5048278;28;20055;-55
2022/08/29 12:57:56;;;;;;;7.18;2.50;;;24.80;99.90;;;;;;5048752;28;20040;-58
2022/08/29 13:00:29;;;;;;;4.90;2.05;;;24.90;99.90;;;;;;5048296;28;20052;-55
2022/08/29 13:03:05;;;;;;;4.93;1.83;;;24.70;99.90;;;;;;5047652;28;20456;-56
2022/08/29 13:05:32;;;;;;;2.53;1.52;;;24.60;99.90;;;;;;5048989;28;20048;-56